Terminal Aerodrome Forecast
Issued by NWS Glasgow, MT

Home | Current Version | Previous Version | Text Only | Print | Product List | Glossary On
Versions: 1 2 3 4 5 6 7 8 9 10 11 12 13
755
FTUS45 KGGW 281720
TAFGGW
TAF
KGGW 281720Z 2818/2918 30010G18KT P6SM SCT150
     FM290200 VRB06KT P6SM SCT200
     FM291500 10009KT P6SM FEW150=

USA.gov is the U.S. government's official web portal to all federal, state and local government web resources and services.